メインページ
METAR-TAF:

METAR-TAF

空港 :

シモン・ボリバル国際空港

カラカス, ベネズエラ

緯度: 10-36N, 経度: 066-59W, 海抜: 43m

現時点の気象観測

当レポートは33分前の23:00(UTC)に作成
気温 27°C
湿度 79%
気圧 1013 hPa
視程10km以上
高度1600ftの雲は散在している

METAR: SVMI 212300Z /////KT 9999 SCT016 27/23 Q1013

時間: 19:33 (23:33 UTC)

予報

当レポートは7時間33分前の16:00(UTC)に作成
予報は21日の 18時(UTC)から 22日の 18時(UTC)まで有効
北東の風 11kt
視程10km以上
高度1600ftの雲はほとんどない
21日の 18時(UTC)から 21日の 22時(UTC)まで徐々に
の風 10kt
視程: 9000m
高度1300ftの千切れ雲あり
霧雨

TAF: SVMI 211600Z 2118/2218 05011KT 9999 FEW016 TX34/18Z TN26/09Z BECMG 2118/2122 09010KT 9000 DZ BKN013

4,000以上の空港の気象観測と天気予報(METAR報とTAF報)

利用可能な観測所は地図上に黄色い丸と赤い丸で示す。

丸の上にカーソルを重ねると観測所名を参照できる。

次にクリックすると気象観測と天気予報を参照できる。

マップの切り替え:黒色「×」印の緑ボタンをクリックして拡大、「-」印の緑ボタンをクリックして縮小、緑色の三角印をクリックして隣りの地図に切り替え


METAR-TAF: